createdAt,value
2019-01-02T00:03:21.831Z,99.90
2019-01-02T00:05:54.206Z,99.90
2019-01-02T00:08:27.168Z,99.90
2019-01-02T00:11:06.174Z,99.90
2019-01-02T00:13:42.539Z,99.90
2019-01-02T00:16:11.414Z,99.90
2019-01-02T00:18:40.656Z,99.90
2019-01-02T00:21:09.519Z,99.90
2019-01-02T00:23:38.443Z,99.90
2019-01-02T00:26:07.573Z,99.90
2019-01-02T00:28:36.516Z,99.90
2019-01-02T00:31:05.763Z,99.90
2019-01-02T00:33:34.713Z,99.90
2019-01-02T00:36:04.026Z,99.90
2019-01-02T00:38:32.826Z,99.90
2019-01-02T00:41:02.152Z,99.90
2019-01-02T00:43:31.054Z,99.90
2019-01-02T00:46:00.306Z,99.90
2019-01-02T00:48:29.276Z,99.90
2019-01-02T00:50:58.478Z,99.90
2019-01-02T00:53:27.683Z,99.90
2019-01-02T00:55:56.984Z,99.90
2019-01-02T00:58:25.965Z,99.90
2019-01-02T01:00:55.231Z,99.90
2019-01-02T01:03:24.138Z,99.90
2019-01-02T01:05:53.242Z,99.90
2019-01-02T01:08:22.093Z,99.90
2019-01-02T01:10:51.543Z,99.90
2019-01-02T01:13:20.520Z,99.90
2019-01-02T01:15:49.752Z,99.90
2019-01-02T01:18:18.639Z,99.90
2019-01-02T01:20:52.270Z,99.90
2019-01-02T01:23:21.282Z,99.90
2019-01-02T01:25:50.169Z,99.90
2019-01-02T01:28:19.081Z,99.90
2019-01-02T01:30:48.034Z,99.90
2019-01-02T01:33:17.375Z,99.90
2019-01-02T01:35:46.254Z,99.90
2019-01-02T01:38:15.097Z,99.90
2019-01-02T01:40:44.257Z,99.90
2019-01-02T01:43:13.182Z,99.90
2019-01-02T01:45:42.364Z,99.90
2019-01-02T01:48:11.312Z,99.90
2019-01-02T01:50:40.204Z,99.90
2019-01-02T01:53:09.691Z,99.90
2019-01-02T01:55:38.632Z,99.90
2019-01-02T01:58:07.486Z,99.90
2019-01-02T02:00:36.483Z,99.90
2019-01-02T02:03:05.286Z,99.90
2019-01-02T02:05:34.496Z,99.90
2019-01-02T02:08:03.283Z,99.90
2019-01-02T02:10:32.244Z,99.90
2019-01-02T02:13:01.472Z,99.90
2019-01-02T02:15:30.432Z,99.90
2019-01-02T02:17:59.707Z,99.90
2019-01-02T02:20:28.689Z,99.90
2019-01-02T02:22:57.585Z,99.90
2019-01-02T02:25:28.234Z,99.90
2019-01-02T02:27:57.123Z,99.90
2019-01-02T02:30:26.141Z,99.90
2019-01-02T02:32:54.992Z,99.90
2019-01-02T02:35:23.896Z,99.90
2019-01-02T02:37:53.846Z,99.90
2019-01-02T02:40:22.748Z,99.90
2019-01-02T02:42:51.550Z,99.90
2019-01-02T02:45:20.742Z,99.90
2019-01-02T02:47:49.976Z,99.90
2019-01-02T02:50:19.098Z,99.90
2019-01-02T02:52:48.339Z,99.90
2019-01-02T02:55:23.935Z,99.90
2019-01-02T02:57:53.194Z,99.90
2019-01-02T03:00:22.956Z,99.90
2019-01-02T03:02:52.044Z,99.90
2019-01-02T03:05:21.176Z,99.90
2019-01-02T03:07:50.169Z,99.90
2019-01-02T03:10:20.776Z,99.90
2019-01-02T03:12:50.188Z,99.90
2019-01-02T03:15:19.638Z,99.90
2019-01-02T03:17:48.468Z,99.90
2019-01-02T03:20:17.570Z,99.90
2019-01-02T03:22:46.567Z,99.90
2019-01-02T03:25:15.796Z,99.90
2019-01-02T03:27:45.041Z,99.90
2019-01-02T03:30:16.604Z,99.90
2019-01-02T03:32:45.810Z,99.90
2019-01-02T03:35:15.194Z,99.90
2019-01-02T03:37:44.132Z,99.90
2019-01-02T03:40:13.169Z,99.90
2019-01-02T03:42:42.059Z,99.90
2019-01-02T03:45:13.363Z,99.90
2019-01-02T03:47:42.361Z,99.90
2019-01-02T03:50:13.589Z,99.90
2019-01-02T03:52:42.506Z,99.90
2019-01-02T03:55:11.397Z,99.90
2019-01-02T03:57:40.387Z,99.90
2019-01-02T04:00:12.123Z,99.90
2019-01-02T04:02:40.929Z,99.90
2019-01-02T04:05:11.069Z,99.90
2019-01-02T04:07:40.972Z,99.90
2019-01-02T04:10:11.939Z,99.90
2019-01-02T04:12:40.799Z,99.90
2019-01-02T04:15:09.879Z,99.90
2019-01-02T04:17:38.803Z,99.90
2019-01-02T04:20:07.817Z,99.90
2019-01-02T04:22:36.694Z,99.90
2019-01-02T04:25:06.003Z,99.90
2019-01-02T04:27:34.961Z,99.90
2019-01-02T04:30:04.328Z,99.90
2019-01-02T04:32:33.247Z,99.90
2019-01-02T04:35:02.060Z,99.90
2019-01-02T04:37:31.048Z,99.90
2019-01-02T04:39:59.891Z,99.90
2019-01-02T04:42:28.778Z,99.90
2019-01-02T04:44:57.608Z,99.90
2019-01-02T04:47:26.672Z,99.90
2019-01-02T04:49:55.647Z,99.90
2019-01-02T04:52:24.552Z,99.90
2019-01-02T04:54:53.513Z,99.90
2019-01-02T04:57:22.424Z,99.90
2019-01-02T04:59:51.236Z,99.90
2019-01-02T05:02:20.309Z,99.90
2019-01-02T05:04:49.111Z,99.90
2019-01-02T05:07:17.974Z,99.90
2019-01-02T05:09:47.035Z,99.90
2019-01-02T05:12:15.849Z,99.90
2019-01-02T05:14:44.780Z,99.90
2019-01-02T05:17:13.664Z,99.90
2019-01-02T05:19:42.660Z,99.90
2019-01-02T05:22:11.556Z,99.90
2019-01-02T05:24:40.371Z,99.90
2019-01-02T05:27:09.134Z,99.90
2019-01-02T05:29:38.042Z,99.90
2019-01-02T05:32:07.008Z,99.90
2019-01-02T05:34:36.218Z,99.90
2019-01-02T05:37:05.013Z,99.90
2019-01-02T05:39:34.235Z,99.90
2019-01-02T05:42:03.170Z,99.90
2019-01-02T05:44:32.973Z,99.90
2019-01-02T05:47:02.132Z,99.90
2019-01-02T05:49:31.025Z,99.90
2019-01-02T05:51:59.838Z,99.90
2019-01-02T05:54:28.731Z,99.90
2019-01-02T05:56:57.593Z,99.90
2019-01-02T05:59:26.485Z,99.90
2019-01-02T06:01:55.270Z,99.90
2019-01-02T06:04:24.228Z,99.90
2019-01-02T06:06:53.141Z,99.90
2019-01-02T06:09:21.958Z,99.90
2019-01-02T06:11:50.869Z,99.90
2019-01-02T06:14:19.892Z,99.90
2019-01-02T06:16:49.685Z,99.90
2019-01-02T06:19:22.428Z,99.90
2019-01-02T06:21:52.334Z,99.90
2019-01-02T06:24:22.038Z,99.90
2019-01-02T06:26:51.939Z,99.90
2019-01-02T06:29:24.848Z,99.90
2019-01-02T06:32:00.932Z,99.90
2019-01-02T06:34:31.221Z,99.90
2019-01-02T06:37:05.109Z,99.90
2019-01-02T06:39:34.618Z,99.90
2019-01-02T06:42:26.992Z,99.90
2019-01-02T06:44:56.586Z,99.90
2019-01-02T06:47:26.742Z,99.90
2019-01-02T06:50:13.846Z,99.90
2019-01-02T06:52:34.208Z,99.50
2019-01-02T06:55:08.325Z,99.30
2019-01-02T06:57:39.128Z,98.70
2019-01-02T07:00:12.778Z,98.30
2019-01-02T07:02:44.946Z,98.80
2019-01-02T07:05:24.573Z,97.90
2019-01-02T07:07:53.699Z,97.30
2019-01-02T07:10:23.702Z,97.60
2019-01-02T07:13:02.262Z,96.60
2019-01-02T07:15:38.050Z,96.40
2019-01-02T07:18:16.560Z,96.10
2019-01-02T07:20:49.265Z,95.30
2019-01-02T07:23:19.074Z,94.90
2019-01-02T07:25:56.680Z,94.90
2019-01-02T07:29:14.312Z,95.40
2019-01-02T07:31:44.058Z,95.20
2019-01-02T07:34:42.463Z,96.50
2019-01-02T07:37:50.162Z,96.80
2019-01-02T07:41:09.833Z,97.10
2019-01-02T07:44:34.175Z,97.40
2019-01-02T07:48:03.405Z,97.30
2019-01-02T07:51:15.171Z,96.90
2019-01-02T07:54:25.057Z,96.40
2019-01-02T07:57:24.257Z,95.80
2019-01-02T08:00:43.161Z,95.50
2019-01-02T08:03:55.340Z,95.80
2019-01-02T08:06:41.737Z,96.00
2019-01-02T08:09:51.001Z,97.50
2019-01-02T08:12:31.757Z,99.00
2019-01-02T08:15:55.330Z,99.60
2019-01-02T08:18:46.328Z,99.80
2019-01-02T08:21:49.871Z,99.90
2019-01-02T08:24:46.163Z,99.90
2019-01-02T08:27:40.717Z,99.90
2019-01-02T08:30:45.811Z,99.90
2019-01-02T08:33:40.985Z,99.90
2019-01-02T08:36:41.266Z,99.90
2019-01-02T08:39:37.766Z,99.90
2019-01-02T08:42:33.758Z,99.90
2019-01-02T08:45:28.337Z,99.90
2019-01-02T08:48:10.965Z,99.90
2019-01-02T08:51:29.184Z,99.90
2019-01-02T08:54:34.923Z,99.90
2019-01-02T08:57:46.723Z,99.70
2019-01-02T09:00:51.881Z,99.80
2019-01-02T09:03:47.616Z,99.50
2019-01-02T09:06:50.409Z,98.80
2019-01-02T09:09:59.943Z,98.50
2019-01-02T09:12:59.726Z,98.00
2019-01-02T09:16:05.203Z,98.40
2019-01-02T09:19:15.389Z,99.60
2019-01-02T09:22:23.121Z,99.90
2019-01-02T09:25:32.118Z,99.90
2019-01-02T09:28:37.948Z,99.90
2019-01-02T09:31:25.822Z,99.90
2019-01-02T09:34:51.163Z,99.90
2019-01-02T09:37:55.906Z,99.90
2019-01-02T09:41:05.246Z,99.90
2019-01-02T09:44:08.133Z,99.90
2019-01-02T09:47:18.889Z,99.90
2019-01-02T09:50:21.254Z,99.90
2019-01-02T09:53:12.879Z,99.90
2019-01-02T09:56:16.379Z,99.90
2019-01-02T09:59:15.221Z,99.90
2019-01-02T10:02:09.709Z,99.90
2019-01-02T10:04:52.519Z,99.90
2019-01-02T10:08:00.425Z,99.90
2019-01-02T10:11:16.978Z,99.90
2019-01-02T10:14:32.887Z,99.90
2019-01-02T10:17:36.028Z,99.90
2019-01-02T10:20:21.517Z,99.90
2019-01-02T10:23:07.345Z,99.90
2019-01-02T10:25:52.671Z,99.90
2019-01-02T10:29:01.839Z,99.90
2019-01-02T10:31:55.983Z,99.90
2019-01-02T10:34:56.966Z,99.90
2019-01-02T10:37:55.588Z,99.90
2019-01-02T10:41:13.326Z,99.90
2019-01-02T10:44:12.624Z,99.90
2019-01-02T10:46:56.077Z,99.90
2019-01-02T10:49:53.104Z,99.90
2019-01-02T10:52:50.824Z,99.90
2019-01-02T10:56:05.652Z,99.90
2019-01-02T10:59:11.438Z,99.90
2019-01-02T11:02:39.614Z,99.90
2019-01-02T11:05:55.633Z,99.90
2019-01-02T11:08:43.077Z,99.90
2019-01-02T11:12:08.048Z,99.90
2019-01-02T11:15:02.865Z,99.90
2019-01-02T11:18:24.418Z,99.90
2019-01-02T11:21:22.962Z,99.90
2019-01-02T11:24:30.136Z,98.60
2019-01-02T11:27:47.834Z,98.80
2019-01-02T11:30:52.587Z,99.90
2019-01-02T11:34:07.128Z,97.30
2019-01-02T11:37:23.779Z,97.80
2019-01-02T11:40:27.090Z,97.60
2019-01-02T11:43:21.320Z,94.10
2019-01-02T11:45:50.208Z,92.80
2019-01-02T11:48:19.185Z,92.30
2019-01-02T11:50:48.144Z,91.70
2019-01-02T11:53:17.102Z,87.70
2019-01-02T11:55:45.954Z,86.90
2019-01-02T11:58:14.891Z,84.50
2019-01-02T12:00:43.868Z,82.50
2019-01-02T12:03:12.794Z,68.40
2019-01-02T12:05:41.670Z,71.50
2019-01-02T12:08:10.678Z,67.00
2019-01-02T12:10:39.610Z,67.20
2019-01-02T12:13:08.615Z,71.20
2019-01-02T12:15:37.627Z,67.80
2019-01-02T12:18:06.565Z,66.30
2019-01-02T12:20:35.584Z,64.10
2019-01-02T12:23:04.877Z,60.00
2019-01-02T12:25:34.012Z,59.90
2019-01-02T12:28:03.335Z,60.10
2019-01-02T12:30:32.346Z,60.30
2019-01-02T12:33:01.387Z,55.30
2019-01-02T12:35:30.616Z,57.20
2019-01-02T12:37:59.699Z,55.60
2019-01-02T12:40:28.926Z,52.40
2019-01-02T12:42:57.840Z,56.80
2019-01-02T12:45:26.743Z,56.80
2019-01-02T12:47:55.868Z,59.90
2019-01-02T12:50:24.917Z,61.60
2019-01-02T12:52:53.913Z,63.70
2019-01-02T12:55:22.964Z,65.10
2019-01-02T12:57:51.807Z,61.90
2019-01-02T13:00:20.992Z,62.00
2019-01-02T13:03:29.857Z,63.10
2019-01-02T13:06:35.649Z,61.30
2019-01-02T13:09:32.144Z,63.90
2019-01-02T13:12:48.571Z,66.10
2019-01-02T13:15:53.743Z,66.40
2019-01-02T13:18:50.159Z,67.30
2019-01-02T13:22:21.509Z,63.70
2019-01-02T13:24:59.827Z,63.10
2019-01-02T13:28:02.540Z,65.80
2019-01-02T13:31:10.290Z,67.00
2019-01-02T13:34:04.230Z,68.20
2019-01-02T13:36:58.906Z,69.90
2019-01-02T13:39:49.123Z,72.20
2019-01-02T13:42:57.647Z,72.50
2019-01-02T13:45:43.907Z,70.20
2019-01-02T13:48:56.925Z,70.20
2019-01-02T13:51:34.930Z,75.70
2019-01-02T13:54:03.795Z,72.90
2019-01-02T13:56:35.099Z,70.60
2019-01-02T13:59:04.201Z,72.30
2019-01-02T14:01:33.061Z,70.60
2019-01-02T14:04:04.327Z,71.80
2019-01-02T14:06:33.344Z,73.80
2019-01-02T14:09:02.430Z,72.00
2019-01-02T14:11:31.239Z,72.10
2019-01-02T14:14:00.255Z,71.70
2019-01-02T14:16:29.145Z,73.50
2019-01-02T14:18:58.103Z,72.40
2019-01-02T14:21:27.030Z,74.30
2019-01-02T14:23:55.916Z,73.90
2019-01-02T14:26:25.142Z,76.00
2019-01-02T14:28:54.383Z,76.00
2019-01-02T14:31:23.763Z,77.50
2019-01-02T14:33:52.883Z,78.00
2019-01-02T14:36:21.920Z,79.60
2019-01-02T14:38:50.916Z,80.20
2019-01-02T14:41:20.047Z,81.60
2019-01-02T14:43:50.214Z,83.60
2019-01-02T14:46:19.362Z,84.70
2019-01-02T14:48:51.659Z,90.10
2019-01-02T14:51:20.866Z,90.10
2019-01-02T14:53:49.888Z,88.90
2019-01-02T14:56:22.046Z,87.20
2019-01-02T14:58:51.153Z,80.00
2019-01-02T15:01:20.824Z,80.70
2019-01-02T15:03:49.956Z,76.20
2019-01-02T15:06:19.322Z,75.50
2019-01-02T15:08:48.490Z,75.90
2019-01-02T15:11:17.439Z,77.00
2019-01-02T15:13:46.621Z,77.00
2019-01-02T15:16:15.736Z,78.60
2019-01-02T15:18:45.548Z,78.90
2019-01-02T15:21:14.580Z,79.90
2019-01-02T15:23:43.518Z,80.40
2019-01-02T15:26:12.566Z,77.70
2019-01-02T15:28:47.662Z,78.20
2019-01-02T15:31:16.648Z,77.10
2019-01-02T15:33:45.582Z,81.10
2019-01-02T15:36:14.668Z,81.70
2019-01-02T15:38:43.744Z,87.10
2019-01-02T15:41:12.868Z,87.40
2019-01-02T15:43:42.006Z,88.90
2019-01-02T15:46:11.354Z,88.40
2019-01-02T15:48:40.648Z,90.10
2019-01-02T15:51:09.704Z,90.60
2019-01-02T15:53:38.598Z,90.80
2019-01-02T15:56:09.852Z,90.60
2019-01-02T15:58:38.986Z,90.10
2019-01-02T16:01:08.181Z,90.00
2019-01-02T16:03:37.108Z,88.60
2019-01-02T16:06:06.018Z,89.30
2019-01-02T16:08:35.141Z,88.30
2019-01-02T16:11:03.970Z,87.30
2019-01-02T16:13:33.274Z,87.60
2019-01-02T16:16:02.240Z,84.30
2019-01-02T16:18:31.326Z,81.10
2019-01-02T16:21:00.407Z,77.90
2019-01-02T16:23:29.570Z,76.50
2019-01-02T16:25:58.584Z,77.20
2019-01-02T16:28:27.863Z,75.00
2019-01-02T16:30:57.088Z,75.20
2019-01-02T16:33:26.304Z,79.20
2019-01-02T16:35:55.514Z,82.50
2019-01-02T16:38:24.649Z,64.60
2019-01-02T16:40:53.800Z,58.40
2019-01-02T16:43:22.997Z,52.70
2019-01-02T16:45:52.974Z,54.30
2019-01-02T16:48:22.512Z,52.80
2019-01-02T16:50:51.320Z,56.80
2019-01-02T16:53:20.337Z,57.30
2019-01-02T16:55:49.378Z,54.00
2019-01-02T16:58:18.602Z,53.40
2019-01-02T17:00:47.635Z,56.00
2019-01-02T17:03:16.693Z,52.50
2019-01-02T17:05:45.826Z,54.50
2019-01-02T17:08:14.801Z,56.60
2019-01-02T17:10:43.747Z,58.30
2019-01-02T17:13:12.827Z,56.60
2019-01-02T17:15:41.830Z,55.90
2019-01-02T17:18:10.945Z,59.80
2019-01-02T17:20:41.258Z,58.20
2019-01-02T17:23:10.194Z,60.10
2019-01-02T17:25:39.054Z,61.60
2019-01-02T17:28:07.915Z,60.70
2019-01-02T17:30:36.935Z,62.10
2019-01-02T17:33:06.059Z,63.30
2019-01-02T17:35:34.938Z,62.10
2019-01-02T17:38:03.948Z,63.00
2019-01-02T17:40:32.857Z,61.70
2019-01-02T17:43:01.674Z,63.50
2019-01-02T17:45:30.925Z,63.50
2019-01-02T17:48:00.133Z,62.20
2019-01-02T17:50:29.177Z,65.30
2019-01-02T17:52:58.717Z,63.50
2019-01-02T17:55:27.895Z,65.10
2019-01-02T17:57:56.955Z,68.10
2019-01-02T18:00:26.049Z,68.00
2019-01-02T18:02:55.134Z,69.20
2019-01-02T18:05:24.229Z,69.70
2019-01-02T18:07:53.499Z,70.70
2019-01-02T18:10:22.729Z,70.90
2019-01-02T18:12:51.681Z,71.40
2019-01-02T18:15:21.226Z,73.40
2019-01-02T18:17:50.405Z,74.80
2019-01-02T18:20:19.432Z,76.00
2019-01-02T18:22:48.309Z,76.00
2019-01-02T18:25:17.194Z,76.90
2019-01-02T18:27:46.158Z,76.90
2019-01-02T18:30:15.110Z,77.90
2019-01-02T18:32:44.006Z,79.70
2019-01-02T18:35:12.984Z,80.10
2019-01-02T18:37:42.014Z,82.60
2019-01-02T18:40:11.406Z,81.80
2019-01-02T18:42:40.238Z,81.70
2019-01-02T18:45:09.242Z,83.00
2019-01-02T18:47:38.121Z,84.00
2019-01-02T18:50:09.460Z,84.10
2019-01-02T18:52:38.322Z,84.80
2019-01-02T18:55:07.323Z,85.30
2019-01-02T18:57:36.239Z,84.60
2019-01-02T19:00:06.338Z,86.40
2019-01-02T19:02:35.222Z,86.20
2019-01-02T19:05:04.419Z,88.20
2019-01-02T19:07:33.288Z,87.70
2019-01-02T19:10:02.095Z,88.90
2019-01-02T19:12:30.923Z,90.00
2019-01-02T19:14:59.878Z,89.50
2019-01-02T19:17:28.711Z,89.70
2019-01-02T19:19:57.657Z,89.50
2019-01-02T19:22:26.637Z,90.00
2019-01-02T19:24:55.676Z,90.30
2019-01-02T19:27:24.555Z,90.50
2019-01-02T19:29:53.430Z,90.50
2019-01-02T19:32:22.303Z,90.50
2019-01-02T19:34:51.277Z,90.20
2019-01-02T19:37:20.233Z,90.60
2019-01-02T19:39:50.102Z,90.70
2019-01-02T19:42:18.973Z,91.10
2019-01-02T19:44:47.795Z,90.90
2019-01-02T19:47:16.848Z,91.10
2019-01-02T19:49:45.737Z,91.40
2019-01-02T19:52:14.727Z,91.50
2019-01-02T19:54:43.699Z,91.70
2019-01-02T19:57:12.661Z,92.10
2019-01-02T19:59:41.479Z,92.10
2019-01-02T20:02:10.708Z,92.10
2019-01-02T20:04:39.657Z,92.30
2019-01-02T20:07:08.505Z,92.60
2019-01-02T20:09:37.546Z,92.30
2019-01-02T20:12:06.515Z,92.60
2019-01-02T20:14:35.466Z,92.60
2019-01-02T20:17:04.342Z,93.10
2019-01-02T20:19:33.313Z,93.10
2019-01-02T20:22:02.241Z,93.50
2019-01-02T20:24:31.178Z,93.70
2019-01-02T20:27:00.209Z,93.70
2019-01-02T20:29:29.098Z,93.90
2019-01-02T20:31:58.057Z,94.20
2019-01-02T20:34:27.064Z,94.40
2019-01-02T20:36:56.008Z,94.80
2019-01-02T20:39:24.879Z,95.20
2019-01-02T20:41:53.832Z,95.60
2019-01-02T20:44:22.649Z,96.00
2019-01-02T20:46:51.511Z,96.30
2019-01-02T20:49:20.367Z,96.60
2019-01-02T20:51:49.271Z,96.80
2019-01-02T20:54:18.227Z,97.00
2019-01-02T20:56:47.128Z,97.10
2019-01-02T20:59:16.093Z,97.20
2019-01-02T21:01:44.914Z,97.50
2019-01-02T21:04:13.871Z,97.80
2019-01-02T21:06:42.765Z,98.10
2019-01-02T21:09:11.622Z,98.60
2019-01-02T21:11:40.566Z,98.60
2019-01-02T21:14:09.516Z,98.60
2019-01-02T21:16:38.379Z,98.90
2019-01-02T21:19:07.295Z,99.00
2019-01-02T21:21:36.244Z,99.30
2019-01-02T21:24:05.340Z,99.60
2019-01-02T21:26:34.222Z,99.70
2019-01-02T21:29:03.256Z,99.90
2019-01-02T21:31:32.209Z,99.90
2019-01-02T21:34:01.164Z,99.90
2019-01-02T21:36:30.174Z,99.90
2019-01-02T21:38:59.071Z,99.90
2019-01-02T21:41:29.128Z,99.90
2019-01-02T21:43:57.998Z,99.90
2019-01-02T21:46:27.025Z,99.70
2019-01-02T21:48:56.144Z,99.80
2019-01-02T21:51:25.135Z,99.90
2019-01-02T21:53:54.050Z,99.90
2019-01-02T21:56:23.070Z,99.60
2019-01-02T21:58:52.067Z,99.70
2019-01-02T22:01:21.094Z,99.80
2019-01-02T22:03:50.076Z,99.80
2019-01-02T22:06:18.938Z,99.90
2019-01-02T22:08:47.853Z,99.90
2019-01-02T22:11:16.741Z,99.80
2019-01-02T22:13:45.625Z,99.90
2019-01-02T22:16:14.680Z,99.90
2019-01-02T22:18:43.881Z,99.90
2019-01-02T22:21:12.760Z,99.90
2019-01-02T22:23:41.888Z,99.90
2019-01-02T22:26:11.104Z,99.90
2019-01-02T22:28:40.102Z,99.90
2019-01-02T22:31:09.188Z,99.90
2019-01-02T22:33:38.108Z,99.90
2019-01-02T22:36:08.417Z,99.90
2019-01-02T22:38:37.471Z,99.90
2019-01-02T22:41:06.419Z,99.90
2019-01-02T22:43:35.410Z,99.90
2019-01-02T22:46:04.712Z,99.90
2019-01-02T22:48:33.602Z,99.90
2019-01-02T22:51:02.424Z,99.90
2019-01-02T22:53:31.435Z,99.90
2019-01-02T22:56:00.324Z,99.90
2019-01-02T22:58:29.323Z,99.90
2019-01-02T23:01:11.383Z,99.90
2019-01-02T23:03:57.888Z,99.90
2019-01-02T23:06:44.616Z,99.90
2019-01-02T23:09:36.324Z,99.90
2019-01-02T23:12:27.841Z,99.90
2019-01-02T23:15:24.689Z,99.90
2019-01-02T23:18:10.412Z,99.90
2019-01-02T23:21:01.382Z,99.90
2019-01-02T23:23:49.361Z,99.90
2019-01-02T23:26:37.494Z,99.90
2019-01-02T23:29:43.806Z,99.90
2019-01-02T23:32:34.940Z,99.90
2019-01-02T23:35:37.971Z,99.90
2019-01-02T23:38:33.746Z,99.90
2019-01-02T23:41:20.050Z,99.90
2019-01-02T23:44:07.737Z,99.90
2019-01-02T23:46:51.214Z,99.90
2019-01-02T23:49:57.449Z,99.90
2019-01-02T23:52:48.503Z,99.90
2019-01-02T23:55:29.943Z,99.90
2019-01-02T23:58:24.020Z,99.90
